sensor_id;sensor_type;location;lat;lon;timestamp;pressure;altitude;pressure_sealevel;temperature;humidity
51067;BME280;37112;45.892;-123.962;2023-04-06T00:00:44;101796.10;;;9.85;77.38
51067;BME280;37112;45.892;-123.962;2023-04-06T00:02:56;101797.64;;;9.78;77.91
51067;BME280;37112;45.892;-123.962;2023-04-06T00:05:07;101793.05;;;9.70;78.36
51067;BME280;37112;45.892;-123.962;2023-04-06T00:07:17;101791.77;;;9.63;78.44
51067;BME280;37112;45.892;-123.962;2023-04-06T00:09:27;101789.80;;;9.60;79.22
51067;BME280;37112;45.892;-123.962;2023-04-06T00:11:37;101788.05;;;9.52;79.37
51067;BME280;37112;45.892;-123.962;2023-04-06T00:13:47;101788.05;;;9.45;79.11
51067;BME280;37112;45.892;-123.962;2023-04-06T00:15:58;101779.49;;;9.41;79.32
51067;BME280;37112;45.892;-123.962;2023-04-06T00:18:08;101759.14;;;9.41;79.67
51067;BME280;37112;45.892;-123.962;2023-04-06T00:20:18;101745.71;;;9.40;79.68
51067;BME280;37112;45.892;-123.962;2023-04-06T00:22:28;101740.64;;;9.42;79.81
51067;BME280;37112;45.892;-123.962;2023-04-06T00:24:38;101736.59;;;9.45;80.10
51067;BME280;37112;45.892;-123.962;2023-04-06T00:26:48;101731.80;;;9.53;80.68
51067;BME280;37112;45.892;-123.962;2023-04-06T00:28:58;101737.55;;;9.62;81.15
51067;BME280;37112;45.892;-123.962;2023-04-06T00:31:08;101734.94;;;9.69;81.07
51067;BME280;37112;45.892;-123.962;2023-04-06T00:33:19;101736.21;;;9.72;80.81
51067;BME280;37112;45.892;-123.962;2023-04-06T00:35:29;101740.52;;;9.75;80.79
51067;BME280;37112;45.892;-123.962;2023-04-06T00:37:40;101740.20;;;9.77;80.77
51067;BME280;37112;45.892;-123.962;2023-04-06T00:39:50;101739.06;;;9.79;80.46
51067;BME280;37112;45.892;-123.962;2023-04-06T00:42:00;101735.59;;;9.82;80.68
51067;BME280;37112;45.892;-123.962;2023-04-06T00:44:17;101736.48;;;9.85;80.78
51067;BME280;37112;45.892;-123.962;2023-04-06T00:46:27;101735.12;;;9.87;80.70
51067;BME280;37112;45.892;-123.962;2023-04-06T00:48:38;101727.54;;;9.83;80.83
51067;BME280;37112;45.892;-123.962;2023-04-06T00:50:48;101725.91;;;9.79;80.67
51067;BME280;37112;45.892;-123.962;2023-04-06T00:52:58;101721.94;;;9.74;80.78
51067;BME280;37112;45.892;-123.962;2023-04-06T00:55:10;101719.32;;;9.69;80.79
51067;BME280;37112;45.892;-123.962;2023-04-06T00:57:19;101719.77;;;9.64;80.69
51067;BME280;37112;45.892;-123.962;2023-04-06T00:59:34;101715.59;;;9.59;80.80
51067;BME280;37112;45.892;-123.962;2023-04-06T01:01:47;101711.09;;;9.56;80.89
51067;BME280;37112;45.892;-123.962;2023-04-06T01:04:13;101710.97;;;9.55;81.32
51067;BME280;37112;45.892;-123.962;2023-04-06T01:06:24;101704.65;;;9.54;81.36
51067;BME280;37112;45.892;-123.962;2023-04-06T01:08:41;101704.80;;;9.51;81.28
51067;BME280;37112;45.892;-123.962;2023-04-06T01:10:58;101703.06;;;9.50;81.36
51067;BME280;37112;45.892;-123.962;2023-04-06T01:13:10;101697.95;;;9.49;81.54
51067;BME280;37112;45.892;-123.962;2023-04-06T01:15:40;101694.94;;;9.45;81.59
51067;BME280;37112;45.892;-123.962;2023-04-06T01:17:53;101697.78;;;9.42;81.80
51067;BME280;37112;45.892;-123.962;2023-04-06T01:20:03;101694.89;;;9.39;81.92
51067;BME280;37112;45.892;-123.962;2023-04-06T01:22:17;101690.57;;;9.37;81.94
51067;BME280;37112;45.892;-123.962;2023-04-06T01:24:36;101685.16;;;9.35;82.15
51067;BME280;37112;45.892;-123.962;2023-04-06T01:26:51;101686.08;;;9.30;82.15
51067;BME280;37112;45.892;-123.962;2023-04-06T01:29:02;101683.05;;;9.27;82.20
51067;BME280;37112;45.892;-123.962;2023-04-06T01:31:15;101680.63;;;9.22;82.07
51067;BME280;37112;45.892;-123.962;2023-04-06T01:33:29;101679.84;;;9.19;82.20
51067;BME280;37112;45.892;-123.962;2023-04-06T01:35:44;101678.94;;;9.20;82.49
51067;BME280;37112;45.892;-123.962;2023-04-06T01:37:58;101676.36;;;9.18;82.45
51067;BME280;37112;45.892;-123.962;2023-04-06T01:40:12;101671.40;;;9.18;82.63
51067;BME280;37112;45.892;-123.962;2023-04-06T01:42:27;101669.45;;;9.18;82.65
51067;BME280;37112;45.892;-123.962;2023-04-06T01:44:38;101669.45;;;9.18;82.69
51067;BME280;37112;45.892;-123.962;2023-04-06T01:46:52;101664.27;;;9.15;82.60
51067;BME280;37112;45.892;-123.962;2023-04-06T01:49:02;101660.41;;;9.14;82.64
51067;BME280;37112;45.892;-123.962;2023-04-06T01:51:18;101658.08;;;9.15;82.95
51067;BME280;37112;45.892;-123.962;2023-04-06T01:53:34;101654.42;;;9.17;83.13
51067;BME280;37112;45.892;-123.962;2023-04-06T01:55:45;101649.32;;;9.16;83.06
51067;BME280;37112;45.892;-123.962;2023-04-06T01:58:03;101643.71;;;9.19;83.25
51067;BME280;37112;45.892;-123.962;2023-04-06T02:00:18;101635.13;;;9.20;83.16
51067;BME280;37112;45.892;-123.962;2023-04-06T02:02:30;101628.67;;;9.23;83.15
51067;BME280;37112;45.892;-123.962;2023-04-06T02:04:44;101624.17;;;9.24;83.13
51067;BME280;37112;45.892;-123.962;2023-04-06T02:06:54;101618.39;;;9.26;83.34
51067;BME280;37112;45.892;-123.962;2023-04-06T02:09:06;101618.13;;;9.28;83.34
51067;BME280;37112;45.892;-123.962;2023-04-06T02:11:16;101619.66;;;9.29;83.47
51067;BME280;37112;45.892;-123.962;2023-04-06T02:13:30;101614.91;;;9.32;83.48
51067;BME280;37112;45.892;-123.962;2023-04-06T02:15:41;101607.96;;;9.33;83.28
51067;BME280;37112;45.892;-123.962;2023-04-06T02:17:51;101606.90;;;9.33;83.33
51067;BME280;37112;45.892;-123.962;2023-04-06T02:20:01;101603.89;;;9.33;83.31
51067;BME280;37112;45.892;-123.962;2023-04-06T02:22:11;101599.70;;;9.32;83.16
51067;BME280;37112;45.892;-123.962;2023-04-06T02:24:21;101595.23;;;9.29;82.90
51067;BME280;37112;45.892;-123.962;2023-04-06T02:26:32;101593.10;;;9.25;82.98
51067;BME280;37112;45.892;-123.962;2023-04-06T02:28:42;101593.77;;;9.19;82.90
51067;BME280;37112;45.892;-123.962;2023-04-06T02:30:52;101588.63;;;9.15;82.90
51067;BME280;37112;45.892;-123.962;2023-04-06T02:33:05;101584.21;;;9.10;82.81
51067;BME280;37112;45.892;-123.962;2023-04-06T02:35:22;101578.17;;;9.07;83.03
51067;BME280;37112;45.892;-123.962;2023-04-06T02:37:33;101574.90;;;9.05;82.85
51067;BME280;37112;45.892;-123.962;2023-04-06T02:39:43;101571.15;;;9.02;82.94
51067;BME280;37112;45.892;-123.962;2023-04-06T02:41:54;101568.56;;;9.01;83.05
51067;BME280;37112;45.892;-123.962;2023-04-06T02:44:05;101564.69;;;8.97;82.86
51067;BME280;37112;45.892;-123.962;2023-04-06T02:46:19;101563.48;;;8.92;83.00
51067;BME280;37112;45.892;-123.962;2023-04-06T02:48:29;101557.02;;;8.90;83.00
51067;BME280;37112;45.892;-123.962;2023-04-06T02:50:40;101558.47;;;8.90;83.29
51067;BME280;37112;45.892;-123.962;2023-04-06T02:52:50;101554.13;;;8.91;83.43
51067;BME280;37112;45.892;-123.962;2023-04-06T02:55:00;101550.92;;;8.92;83.45
51067;BME280;37112;45.892;-123.962;2023-04-06T02:57:11;101546.28;;;8.89;83.30
51067;BME280;37112;45.892;-123.962;2023-04-06T02:59:23;101544.80;;;8.86;83.23
51067;BME280;37112;45.892;-123.962;2023-04-06T03:01:40;101542.86;;;8.86;83.36
51067;BME280;37112;45.892;-123.962;2023-04-06T03:03:51;101544.02;;;8.84;83.39
51067;BME280;37112;45.892;-123.962;2023-04-06T03:06:04;101538.27;;;8.83;83.27
51067;BME280;37112;45.892;-123.962;2023-04-06T03:08:15;101536.05;;;8.81;83.51
51067;BME280;37112;45.892;-123.962;2023-04-06T03:10:25;101529.80;;;8.82;83.78
51067;BME280;37112;45.892;-123.962;2023-04-06T03:12:35;101525.09;;;8.84;83.76
51067;BME280;37112;45.892;-123.962;2023-04-06T03:15:03;101520.17;;;8.83;83.69
51067;BME280;37112;45.892;-123.962;2023-04-06T03:17:14;101521.38;;;8.84;83.76
51067;BME280;37112;45.892;-123.962;2023-04-06T03:19:24;101521.81;;;8.82;83.62
51067;BME280;37112;45.892;-123.962;2023-04-06T03:21:36;101520.19;;;8.83;83.90
51067;BME280;37112;45.892;-123.962;2023-04-06T03:23:46;101519.08;;;8.83;84.06
51067;BME280;37112;45.892;-123.962;2023-04-06T03:25:57;101521.09;;;8.86;84.33
51067;BME280;37112;45.892;-123.962;2023-04-06T03:28:09;101516.75;;;8.88;84.40
51067;BME280;37112;45.892;-123.962;2023-04-06T03:30:32;101511.64;;;8.87;84.15
51067;BME280;37112;45.892;-123.962;2023-04-06T03:32:43;101514.20;;;8.85;83.95
51067;BME280;37112;45.892;-123.962;2023-04-06T03:34:54;101510.05;;;8.84;83.98
51067;BME280;37112;45.892;-123.962;2023-04-06T03:37:04;101508.11;;;8.84;84.18
51067;BME280;37112;45.892;-123.962;2023-04-06T03:39:23;101513.70;;;8.81;83.93
51067;BME280;37112;45.892;-123.962;2023-04-06T03:41:33;101514.86;;;8.79;84.05
51067;BME280;37112;45.892;-123.962;2023-04-06T03:43:50;101511.91;;;8.78;84.23
51067;BME280;37112;45.892;-123.962;2023-04-06T03:46:00;101509.52;;;8.76;84.18
51067;BME280;37112;45.892;-123.962;2023-04-06T03:48:11;101506.53;;;8.76;84.36
51067;BME280;37112;45.892;-123.962;2023-04-06T03:50:22;101502.14;;;8.75;84.25
51067;BME280;37112;45.892;-123.962;2023-04-06T03:52:32;101503.73;;;8.71;84.26
51067;BME280;37112;45.892;-123.962;2023-04-06T03:54:42;101496.66;;;8.67;84.33
51067;BME280;37112;45.892;-123.962;2023-04-06T03:56:53;101492.05;;;8.64;84.26
51067;BME280;37112;45.892;-123.962;2023-04-06T03:59:06;101492.45;;;8.62;84.44
51067;BME280;37112;45.892;-123.962;2023-04-06T04:01:17;101490.98;;;8.60;84.37
51067;BME280;37112;45.892;-123.962;2023-04-06T04:03:27;101491.80;;;8.58;84.51
51067;BME280;37112;45.892;-123.962;2023-04-06T04:05:37;101493.63;;;8.57;84.59
51067;BME280;37112;45.892;-123.962;2023-04-06T04:07:48;101488.39;;;8.55;84.63
51067;BME280;37112;45.892;-123.962;2023-04-06T04:09:59;101492.73;;;8.53;84.65
51067;BME280;37112;45.892;-123.962;2023-04-06T04:12:10;101494.61;;;8.51;84.77
51067;BME280;37112;45.892;-123.962;2023-04-06T04:14:21;101493.95;;;8.50;84.93
51067;BME280;37112;45.892;-123.962;2023-04-06T04:16:31;101489.95;;;8.48;85.08
51067;BME280;37112;45.892;-123.962;2023-04-06T04:18:42;101489.07;;;8.48;85.25
51067;BME280;37112;45.892;-123.962;2023-04-06T04:20:53;101494.41;;;8.47;85.30
51067;BME280;37112;45.892;-123.962;2023-04-06T04:23:03;101486.94;;;8.44;85.17
51067;BME280;37112;45.892;-123.962;2023-04-06T04:25:14;101491.01;;;8.41;85.13
51067;BME280;37112;45.892;-123.962;2023-04-06T04:27:24;101482.92;;;8.39;85.36
51067;BME280;37112;45.892;-123.962;2023-04-06T04:29:34;101481.67;;;8.35;85.29
51067;BME280;37112;45.892;-123.962;2023-04-06T04:31:47;101480.33;;;8.34;85.32
51067;BME280;37112;45.892;-123.962;2023-04-06T04:33:57;101478.25;;;8.32;85.35
51067;BME280;37112;45.892;-123.962;2023-04-06T04:36:11;101475.11;;;8.31;85.36
51067;BME280;37112;45.892;-123.962;2023-04-06T04:38:22;101471.58;;;8.31;85.61
51067;BME280;37112;45.892;-123.962;2023-04-06T04:40:34;101466.58;;;8.32;85.71
51067;BME280;37112;45.892;-123.962;2023-04-06T04:42:49;101462.87;;;8.32;85.71
51067;BME280;37112;45.892;-123.962;2023-04-06T04:45:12;101461.27;;;8.32;85.85
51067;BME280;37112;45.892;-123.962;2023-04-06T04:47:23;101465.67;;;8.33;85.78
51067;BME280;37112;45.892;-123.962;2023-04-06T04:49:32;101468.10;;;8.34;85.94
51067;BME280;37112;45.892;-123.962;2023-04-06T04:51:43;101459.11;;;8.33;85.80
51067;BME280;37112;45.892;-123.962;2023-04-06T04:54:02;101460.30;;;8.30;85.57
51067;BME280;37112;45.892;-123.962;2023-04-06T04:56:12;101459.42;;;8.27;85.52
51067;BME280;37112;45.892;-123.962;2023-04-06T04:58:23;101455.59;;;8.25;85.70
51067;BME280;37112;45.892;-123.962;2023-04-06T05:00:36;101454.37;;;8.25;85.83
51067;BME280;37112;45.892;-123.962;2023-04-06T05:02:45;101451.35;;;8.25;85.86
51067;BME280;37112;45.892;-123.962;2023-04-06T05:05:03;101446.52;;;8.26;86.14
51067;BME280;37112;45.892;-123.962;2023-04-06T05:07:13;101451.04;;;8.28;86.15
51067;BME280;37112;45.892;-123.962;2023-04-06T05:09:26;101450.22;;;8.30;86.28
51067;BME280;37112;45.892;-123.962;2023-04-06T05:11:36;101445.00;;;8.32;86.17
51067;BME280;37112;45.892;-123.962;2023-04-06T05:13:46;101437.55;;;8.33;86.09
51067;BME280;37112;45.892;-123.962;2023-04-06T05:15:59;101432.77;;;8.33;86.14
51067;BME280;37112;45.892;-123.962;2023-04-06T05:18:12;101425.84;;;8.33;86.08
51067;BME280;37112;45.892;-123.962;2023-04-06T05:20:22;101432.16;;;8.35;86.27
51067;BME280;37112;45.892;-123.962;2023-04-06T05:22:32;101436.30;;;8.37;86.19
51067;BME280;37112;45.892;-123.962;2023-04-06T05:24:46;101425.77;;;8.35;86.05
51067;BME280;37112;45.892;-123.962;2023-04-06T05:26:56;101423.96;;;8.32;85.95
51067;BME280;37112;45.892;-123.962;2023-04-06T05:29:06;101424.01;;;8.27;85.85
51067;BME280;37112;45.892;-123.962;2023-04-06T05:31:17;101423.20;;;8.25;85.91
51067;BME280;37112;45.892;-123.962;2023-04-06T05:33:29;101419.86;;;8.25;85.98
51067;BME280;37112;45.892;-123.962;2023-04-06T05:35:46;101416.67;;;8.25;85.98
51067;BME280;37112;45.892;-123.962;2023-04-06T05:37:57;101415.61;;;8.25;85.97
51067;BME280;37112;45.892;-123.962;2023-04-06T05:40:09;101418.12;;;8.24;86.17
51067;BME280;37112;45.892;-123.962;2023-04-06T05:42:19;101415.08;;;8.25;86.27
51067;BME280;37112;45.892;-123.962;2023-04-06T05:44:36;101415.58;;;8.26;86.35
51067;BME280;37112;45.892;-123.962;2023-04-06T05:46:50;101405.52;;;8.26;86.22
51067;BME280;37112;45.892;-123.962;2023-04-06T05:49:01;101404.96;;;8.26;86.65
51067;BME280;37112;45.892;-123.962;2023-04-06T05:51:14;101399.58;;;8.27;86.69
51067;BME280;37112;45.892;-123.962;2023-04-06T05:53:27;101393.82;;;8.29;86.89
51067;BME280;37112;45.892;-123.962;2023-04-06T05:55:39;101393.30;;;8.33;87.04
51067;BME280;37112;45.892;-123.962;2023-04-06T05:57:52;101396.67;;;8.37;87.12
51067;BME280;37112;45.892;-123.962;2023-04-06T06:00:03;101389.23;;;8.42;87.25
51067;BME280;37112;45.892;-123.962;2023-04-06T06:02:25;101388.27;;;8.46;87.18
51067;BME280;37112;45.892;-123.962;2023-04-06T06:04:35;101385.42;;;8.50;87.20
51067;BME280;37112;45.892;-123.962;2023-04-06T06:06:46;101383.61;;;8.54;87.18
51067;BME280;37112;45.892;-123.962;2023-04-06T06:09:06;101388.15;;;8.59;87.04
51067;BME280;37112;45.892;-123.962;2023-04-06T06:11:20;101384.62;;;8.63;86.95
51067;BME280;37112;45.892;-123.962;2023-04-06T06:13:31;101378.64;;;8.66;86.43
51067;BME280;37112;45.892;-123.962;2023-04-06T06:15:41;101381.70;;;8.69;86.50
51067;BME280;37112;45.892;-123.962;2023-04-06T06:17:53;101372.88;;;8.71;86.61
51067;BME280;37112;45.892;-123.962;2023-04-06T06:20:06;101373.37;;;8.76;86.63
51067;BME280;37112;45.892;-123.962;2023-04-06T06:22:16;101375.88;;;8.79;86.51
51067;BME280;37112;45.892;-123.962;2023-04-06T06:24:26;101372.70;;;8.82;86.34
51067;BME280;37112;45.892;-123.962;2023-04-06T06:26:36;101371.06;;;8.86;86.14
51067;BME280;37112;45.892;-123.962;2023-04-06T06:28:48;101376.77;;;8.90;86.13
51067;BME280;37112;45.892;-123.962;2023-04-06T06:30:58;101367.94;;;8.92;85.97
51067;BME280;37112;45.892;-123.962;2023-04-06T06:33:09;101371.50;;;8.96;85.79
51067;BME280;37112;45.892;-123.962;2023-04-06T06:35:19;101366.23;;;8.98;85.61
51067;BME280;37112;45.892;-123.962;2023-04-06T06:37:29;101359.96;;;9.00;85.14
51067;BME280;37112;45.892;-123.962;2023-04-06T06:39:40;101366.14;;;9.04;85.25
51067;BME280;37112;45.892;-123.962;2023-04-06T06:41:50;101364.06;;;9.06;85.06
51067;BME280;37112;45.892;-123.962;2023-04-06T06:44:02;101368.59;;;9.08;84.86
51067;BME280;37112;45.892;-123.962;2023-04-06T06:46:15;101360.17;;;9.09;84.83
51067;BME280;37112;45.892;-123.962;2023-04-06T06:48:25;101357.98;;;9.11;84.74
51067;BME280;37112;45.892;-123.962;2023-04-06T06:50:36;101359.44;;;9.13;84.61
51067;BME280;37112;45.892;-123.962;2023-04-06T06:52:45;101356.33;;;9.15;84.59
51067;BME280;37112;45.892;-123.962;2023-04-06T06:54:56;101356.91;;;9.17;84.47
51067;BME280;37112;45.892;-123.962;2023-04-06T06:57:06;101359.35;;;9.18;84.40
51067;BME280;37112;45.892;-123.962;2023-04-06T06:59:20;101359.89;;;9.18;84.13
51067;BME280;37112;45.892;-123.962;2023-04-06T07:01:30;101345.82;;;9.20;83.83
51067;BME280;37112;45.892;-123.962;2023-04-06T07:03:41;101352.18;;;9.20;83.72
51067;BME280;37112;45.892;-123.962;2023-04-06T07:05:51;101354.77;;;9.21;83.98
51067;BME280;37112;45.892;-123.962;2023-04-06T07:08:03;101350.23;;;9.24;83.93
51067;BME280;37112;45.892;-123.962;2023-04-06T07:10:14;101348.44;;;9.24;83.55
51067;BME280;37112;45.892;-123.962;2023-04-06T07:12:24;101341.45;;;9.25;83.68
51067;BME280;37112;45.892;-123.962;2023-04-06T07:14:34;101346.20;;;9.26;83.57
51067;BME280;37112;45.892;-123.962;2023-04-06T07:16:44;101336.45;;;9.26;83.50
51067;BME280;37112;45.892;-123.962;2023-04-06T07:18:55;101336.06;;;9.27;83.40
51067;BME280;37112;45.892;-123.962;2023-04-06T07:21:06;101334.95;;;9.28;83.41
51067;BME280;37112;45.892;-123.962;2023-04-06T07:23:16;101333.27;;;9.30;83.46
51067;BME280;37112;45.892;-123.962;2023-04-06T07:25:26;101332.81;;;9.31;83.38
51067;BME280;37112;45.892;-123.962;2023-04-06T07:27:36;101332.05;;;9.32;83.36
51067;BME280;37112;45.892;-123.962;2023-04-06T07:29:47;101330.62;;;9.32;83.27
51067;BME280;37112;45.892;-123.962;2023-04-06T07:31:57;101324.09;;;9.32;83.04
51067;BME280;37112;45.892;-123.962;2023-04-06T07:34:07;101324.62;;;9.32;83.06
51067;BME280;37112;45.892;-123.962;2023-04-06T07:36:19;101325.48;;;9.32;83.09
51067;BME280;37112;45.892;-123.962;2023-04-06T07:38:29;101321.67;;;9.34;83.10
51067;BME280;37112;45.892;-123.962;2023-04-06T07:40:39;101316.46;;;9.36;83.15
51067;BME280;37112;45.892;-123.962;2023-04-06T07:42:49;101318.08;;;9.35;82.92
51067;BME280;37112;45.892;-123.962;2023-04-06T07:44:59;101311.66;;;9.36;82.90
51067;BME280;37112;45.892;-123.962;2023-04-06T07:47:09;101307.21;;;9.37;82.86
51067;BME280;37112;45.892;-123.962;2023-04-06T07:49:20;101301.66;;;9.37;82.91
51067;BME280;37112;45.892;-123.962;2023-04-06T07:51:31;101302.90;;;9.37;82.83
51067;BME280;37112;45.892;-123.962;2023-04-06T07:53:41;101293.99;;;9.38;82.82
51067;BME280;37112;45.892;-123.962;2023-04-06T07:55:51;101297.88;;;9.38;82.85
51067;BME280;37112;45.892;-123.962;2023-04-06T07:58:01;101303.28;;;9.40;82.84
51067;BME280;37112;45.892;-123.962;2023-04-06T08:00:13;101300.95;;;9.40;82.79
51067;BME280;37112;45.892;-123.962;2023-04-06T08:02:23;101300.29;;;9.40;82.90
51067;BME280;37112;45.892;-123.962;2023-04-06T08:04:34;101292.07;;;9.41;82.91
51067;BME280;37112;45.892;-123.962;2023-04-06T08:06:44;101302.52;;;9.41;83.07
51067;BME280;37112;45.892;-123.962;2023-04-06T08:08:54;101290.83;;;9.40;82.95
51067;BME280;37112;45.892;-123.962;2023-04-06T08:11:04;101285.46;;;9.42;83.04
51067;BME280;37112;45.892;-123.962;2023-04-06T08:13:14;101279.10;;;9.41;83.08
51067;BME280;37112;45.892;-123.962;2023-04-06T08:15:24;101275.89;;;9.42;83.16
51067;BME280;37112;45.892;-123.962;2023-04-06T08:17:34;101283.47;;;9.43;83.21
51067;BME280;37112;45.892;-123.962;2023-04-06T08:19:47;101277.36;;;9.44;83.09
51067;BME280;37112;45.892;-123.962;2023-04-06T08:21:57;101273.26;;;9.45;83.17
51067;BME280;37112;45.892;-123.962;2023-04-06T08:24:07;101270.20;;;9.45;83.26
51067;BME280;37112;45.892;-123.962;2023-04-06T08:26:17;101271.25;;;9.46;83.31
51067;BME280;37112;45.892;-123.962;2023-04-06T08:28:28;101267.19;;;9.45;83.38
51067;BME280;37112;45.892;-123.962;2023-04-06T08:30:38;101261.56;;;9.44;83.36
51067;BME280;37112;45.892;-123.962;2023-04-06T08:32:48;101256.11;;;9.44;83.39
51067;BME280;37112;45.892;-123.962;2023-04-06T08:34:59;101252.98;;;9.43;83.62
51067;BME280;37112;45.892;-123.962;2023-04-06T08:37:09;101251.63;;;9.41;83.55
51067;BME280;37112;45.892;-123.962;2023-04-06T08:39:19;101248.69;;;9.40;83.76
51067;BME280;37112;45.892;-123.962;2023-04-06T08:41:34;101244.11;;;9.39;83.89
51067;BME280;37112;45.892;-123.962;2023-04-06T08:43:46;101241.28;;;9.39;84.00
51067;BME280;37112;45.892;-123.962;2023-04-06T08:45:57;101243.94;;;9.39;84.01
51067;BME280;37112;45.892;-123.962;2023-04-06T08:48:08;101242.89;;;9.39;84.07
51067;BME280;37112;45.892;-123.962;2023-04-06T08:50:19;101242.36;;;9.39;84.09
51067;BME280;37112;45.892;-123.962;2023-04-06T08:52:29;101239.70;;;9.39;84.09
51067;BME280;37112;45.892;-123.962;2023-04-06T08:54:41;101240.21;;;9.39;84.12
51067;BME280;37112;45.892;-123.962;2023-04-06T08:56:52;101239.77;;;9.38;84.25
51067;BME280;37112;45.892;-123.962;2023-04-06T08:59:04;101231.60;;;9.38;84.26
51067;BME280;37112;45.892;-123.962;2023-04-06T09:01:17;101230.19;;;9.38;84.43
51067;BME280;37112;45.892;-123.962;2023-04-06T09:03:28;101218.62;;;9.36;84.61
51067;BME280;37112;45.892;-123.962;2023-04-06T09:05:37;101214.74;;;9.35;84.88
51067;BME280;37112;45.892;-123.962;2023-04-06T09:07:48;101214.24;;;9.35;84.86
51067;BME280;37112;45.892;-123.962;2023-04-06T09:09:59;101203.98;;;9.35;85.01
51067;BME280;37112;45.892;-123.962;2023-04-06T09:12:09;101205.77;;;9.34;85.04
51067;BME280;37112;45.892;-123.962;2023-04-06T09:14:35;101201.48;;;9.35;85.11
51067;BME280;37112;45.892;-123.962;2023-04-06T09:16:46;101197.21;;;9.35;85.13
51067;BME280;37112;45.892;-123.962;2023-04-06T09:19:03;101194.70;;;9.36;85.08
51067;BME280;37112;45.892;-123.962;2023-04-06T09:21:16;101189.72;;;9.36;85.26
51067;BME280;37112;45.892;-123.962;2023-04-06T09:23:27;101186.48;;;9.37;85.21
51067;BME280;37112;45.892;-123.962;2023-04-06T09:25:37;101187.84;;;9.38;85.31
51067;BME280;37112;45.892;-123.962;2023-04-06T09:27:47;101183.08;;;9.37;85.27
51067;BME280;37112;45.892;-123.962;2023-04-06T09:30:05;101179.34;;;9.38;85.23
51067;BME280;37112;45.892;-123.962;2023-04-06T09:32:15;101173.71;;;9.37;85.48
51067;BME280;37112;45.892;-123.962;2023-04-06T09:34:25;101169.52;;;9.36;85.46
51067;BME280;37112;45.892;-123.962;2023-04-06T09:36:36;101164.55;;;9.36;85.50
51067;BME280;37112;45.892;-123.962;2023-04-06T09:38:56;101167.73;;;9.36;85.55
51067;BME280;37112;45.892;-123.962;2023-04-06T09:41:07;101161.45;;;9.38;85.96
51067;BME280;37112;45.892;-123.962;2023-04-06T09:43:26;101164.46;;;9.38;85.89
51067;BME280;37112;45.892;-123.962;2023-04-06T09:45:36;101160.17;;;9.38;86.02
51067;BME280;37112;45.892;-123.962;2023-04-06T09:47:47;101156.04;;;9.39;86.10
51067;BME280;37112;45.892;-123.962;2023-04-06T09:49:59;101152.98;;;9.40;86.09
51067;BME280;37112;45.892;-123.962;2023-04-06T09:52:12;101151.17;;;9.40;86.07
51067;BME280;37112;45.892;-123.962;2023-04-06T09:54:23;101153.98;;;9.41;86.18
51067;BME280;37112;45.892;-123.962;2023-04-06T09:56:46;101148.08;;;9.42;86.16
51067;BME280;37112;45.892;-123.962;2023-04-06T09:59:01;101142.86;;;9.43;86.22
51067;BME280;37112;45.892;-123.962;2023-04-06T10:01:13;101140.00;;;9.44;86.49
51067;BME280;37112;45.892;-123.962;2023-04-06T10:03:30;101135.17;;;9.45;86.67
51067;BME280;37112;45.892;-123.962;2023-04-06T10:05:50;101129.86;;;9.45;86.69
51067;BME280;37112;45.892;-123.962;2023-04-06T10:08:05;101126.98;;;9.45;87.00
51067;BME280;37112;45.892;-123.962;2023-04-06T10:10:17;101128.67;;;9.46;86.89
51067;BME280;37112;45.892;-123.962;2023-04-06T10:12:26;101125.78;;;9.47;86.98
51067;BME280;37112;45.892;-123.962;2023-04-06T10:14:37;101122.56;;;9.48;86.91
51067;BME280;37112;45.892;-123.962;2023-04-06T10:16:50;101122.56;;;9.48;86.85
51067;BME280;37112;45.892;-123.962;2023-04-06T10:19:06;101122.06;;;9.47;87.15
51067;BME280;37112;45.892;-123.962;2023-04-06T10:21:23;101119.73;;;9.48;87.33
51067;BME280;37112;45.892;-123.962;2023-04-06T10:23:35;101117.08;;;9.48;87.47
51067;BME280;37112;45.892;-123.962;2023-04-06T10:25:56;101114.93;;;9.48;87.26
51067;BME280;37112;45.892;-123.962;2023-04-06T10:28:09;101117.73;;;9.49;87.27
51067;BME280;37112;45.892;-123.962;2023-04-06T10:30:21;101117.75;;;9.48;87.23
51067;BME280;37112;45.892;-123.962;2023-04-06T10:32:36;101110.11;;;9.49;87.27
51067;BME280;37112;45.892;-123.962;2023-04-06T10:34:46;101104.07;;;9.49;87.33
51067;BME280;37112;45.892;-123.962;2023-04-06T10:36:56;101108.49;;;9.49;87.46
51067;BME280;37112;45.892;-123.962;2023-04-06T10:39:07;101101.91;;;9.50;87.58
51067;BME280;37112;45.892;-123.962;2023-04-06T10:41:19;101097.34;;;9.49;87.52
51067;BME280;37112;45.892;-123.962;2023-04-06T10:43:35;101095.54;;;9.50;87.90
51067;BME280;37112;45.892;-123.962;2023-04-06T10:45:52;101092.17;;;9.50;87.87
51067;BME280;37112;45.892;-123.962;2023-04-06T10:48:14;101093.95;;;9.50;87.98
51067;BME280;37112;45.892;-123.962;2023-04-06T10:50:24;101094.10;;;9.50;87.78
51067;BME280;37112;45.892;-123.962;2023-04-06T10:52:35;101089.06;;;9.52;87.98
51067;BME280;37112;45.892;-123.962;2023-04-06T10:54:45;101088.38;;;9.51;88.58
51067;BME280;37112;45.892;-123.962;2023-04-06T10:56:57;101091.55;;;9.51;88.44
51067;BME280;37112;45.892;-123.962;2023-04-06T10:59:07;101083.74;;;9.52;88.43
51067;BME280;37112;45.892;-123.962;2023-04-06T11:01:19;101087.56;;;9.53;88.36
51067;BME280;37112;45.892;-123.962;2023-04-06T11:03:29;101080.46;;;9.53;88.57
51067;BME280;37112;45.892;-123.962;2023-04-06T11:05:40;101077.45;;;9.53;88.33
51067;BME280;37112;45.892;-123.962;2023-04-06T11:07:55;101074.05;;;9.54;88.44
51067;BME280;37112;45.892;-123.962;2023-04-06T11:10:06;101074.04;;;9.54;88.50
51067;BME280;37112;45.892;-123.962;2023-04-06T11:12:28;101064.27;;;9.54;88.67